Onion Creek, California Weather observations

Data are for observation ending at time listed.
 Day   Time    Ave.   Ave.  Ave.  Vector   Max.   Stn.    Total    Solar   Ave.   Snow 
  of    of     Air    Rel.  Wind   Wind    Wind   Baro.  Precip.   Rad.    Soil   Depth
Year   Day     Temp.  Hum.  Speed  Dir.    Gust   Pres.                    Temp.       
2014   (PST)    F      %     mph   deg.    mph     mb.     in.     W/m2     F      in. 
---------------------------------------------------------------------------------------  
 354    0:00   32.4    96    0.0     0      0.0   830.9   33.31       0    33.8   999.0
 354    0:10   32.3    96    0.0     0      0.0   831.2   33.34       0    33.8   999.0
 354    0:20   32.2    96    0.0     0      0.0   831.3   33.31       0    33.7   999.0
 354    0:30   32.4    96    0.0     0      0.0   831.4   33.31       0    33.7   999.0
 354    0:40   32.4    96    0.0     0      0.0   831.2   33.31       0    33.8   999.0
 354    0:50   32.4    96    0.0     0      0.0   831.0   33.31       0    33.8   999.0
 354    1:00   32.7    96    0.9   210      3.0   831.0   33.34       0    33.8   999.0
 354    1:10   32.6    96    0.0     0      0.0   830.9   33.34       0    33.8   999.0
 354    1:20   32.5    96    0.9   134      3.0   830.6   33.34       0    33.8   999.0
 354    1:30   32.8    96    0.6   164      3.4   830.6   33.34       0    33.8   999.0
 354    1:40   32.6    96    0.0     0      0.0   830.6   33.34       0    33.8   999.0
 354    1:50   32.5    96    0.0     0      0.0   830.5   33.31       0    33.8   999.0
 354    2:00   32.6    96    0.4   152      3.2   830.6   33.34       0    33.8   999.0
 354    2:10   32.8    96    1.2   161      4.7   830.6   33.34       0    33.7   999.0
 354    2:20   32.9    96    1.4   182      6.6   830.6   33.34       0    33.7   999.0
 354    2:30   33.1    96    1.2   207      5.9   830.7   33.34       0    33.7   999.0
 354    2:40   32.9    96    0.5   235      2.2   830.7   33.34       0    33.7   999.0
 354    2:50   32.7    96    0.7   224      3.7   830.7   33.34       0    33.7   999.0
 354    3:00   32.7    96    0.6   144      3.2   830.8   33.37       0    33.7   999.0
 354    3:10   32.9    96    1.2   134      3.0   830.8   33.34       0    33.7   999.0
 354    3:20   32.9    96    1.8   134      6.5   830.5   33.37       0    33.7   999.0
 354    3:30   33.0    96    1.8   133      5.8   830.4   33.37       0    33.7   999.0
 354    3:40   32.7    96    0.8    28      2.2   830.8   33.37       0    33.7   999.0
 354    3:50   33.3    96    1.9   133      6.3   831.0   33.37       0    33.7   999.0
 354    4:00   33.6    96    1.9   144      6.4   830.8   33.37       0    33.7   999.0
 354    4:10   33.7    96    1.0   152      6.1   830.6   33.40       0    33.7   999.0
 354    4:20   33.2    95    2.2   135      5.1   830.7   33.37       0    33.7   999.0
 354    4:30   33.4    96    2.2   214      6.0   830.4   33.40       0    33.7   999.0
 354    4:40   33.5    96    2.0   238      7.4   830.5   33.40       0    33.7   999.0
 354    4:50   33.6    96    2.7   232      8.9   830.7   33.40       0    33.7   999.0
 354    5:00   33.5    96    1.2   224      5.7   830.8   33.40       0    33.7   999.0
 354    5:10   33.2    95    0.9   167      4.8   830.9   33.43       0    33.7   999.0
 354    5:20   33.0    95    0.6   209      3.7   830.7   33.43       0    33.7   999.0
 354    5:30   32.8    95    1.2   163      4.9   830.7   33.43       0    33.7   999.0
 354    5:40   32.7    96    0.6   111      3.1   830.8   33.43       0    33.7   999.0
 354    5:50   32.7    96    0.9   246      2.6   830.8   33.47       0    33.7   999.0
 354    6:00   32.7    96    2.1   242     13.0   831.0   33.47       0    33.7   999.0
 354    6:10   32.7    95    2.0   196      5.2   831.2   33.47       0    33.7   999.0
 354    6:20   32.6    95    1.5   145      3.4   831.2   33.47       0    33.7   999.0
 354    6:30   32.5    95    1.2   151      2.6   830.9   33.50       0    33.7   999.0
 354    6:40   32.4    95    0.2   205      1.8   831.1   33.47       0    33.7   999.0
 354    6:50   32.3    95    0.7   153      3.6   830.9   33.50       0    33.7   999.0
 354    7:00   32.3    95    0.5   196      2.7   831.3   33.50       0    33.6   999.0
 354    7:10   32.3    96    0.5   114      3.4   831.1   33.50       0    33.7   999.0
 354    7:20   32.4    96    0.4   130      2.2   831.5   33.50       0    33.6   999.0
 354    7:30   32.7    96    1.0   156      3.6   831.4   33.50       1    33.6   999.0
 354    7:40   32.9    96    1.0   216      6.1   831.4   33.50       1    33.6   999.0
 354    7:50   32.9    96    0.3   179      2.0   831.4   33.50       2    33.6   999.0
 354    8:00   33.0    96    1.1   200      4.7   831.5   33.50       4    33.6   999.0
 354    8:10   32.9    96    0.8   174      2.5   831.5   33.53       4    33.6   999.0
 354    8:20   33.0    96    1.2   172      4.9   831.8   33.50       5    33.6   999.0
 354    8:30   33.2    96    1.2   229      4.8   832.0   33.53       7    33.6   999.0
 354    8:40   33.3    96    2.8   241     10.7   832.1   33.53      10    33.6   999.0
 354    8:50   33.3    96    2.3   231      9.1   832.3   33.53       9    33.6   999.0
 354    9:00   33.3    96    1.6   239      7.0   832.2   33.53       8    33.6   999.0
 354    9:10   33.4    95    1.3   177      3.4   832.5   33.50      20    33.6   999.0
 354    9:20   33.7    95    1.7   205      5.5   832.6   33.53      23    33.6   999.0
 354    9:30   33.9    94    1.9   190      6.6   832.9   33.50      25    33.6   999.0
 354    9:40   33.7    94    2.1   177      5.0   833.0   33.50      18    33.6   999.0
 354    9:50   33.7    94    0.9   152      3.8   833.0   33.53      35    33.6   999.0
 354   10:00   33.9    93    1.5   189      4.0   833.2   33.53      26    33.6   999.0
 354   10:10   33.9    94    1.2   190      5.0   833.2   33.53      36    33.6   999.0
 354   10:20   34.1    93    1.3   206      6.5   833.2   33.53      55    33.6   999.0
 354   10:30   34.2    93    0.9   204      3.3   833.2   33.53      43    33.6   999.0
 354   10:40   34.3    93    1.5   214      4.1   833.0   33.53      91    33.6   999.0
 354   10:50   34.8    92    2.1   230      7.1   833.0   33.53      98    33.6   999.0
 354   11:00   34.9    92    1.3   208      5.7   833.1   33.53      99    33.6   999.0
 354   11:10   34.9    92    2.3   231      6.5   833.0   33.53      83    33.6   999.0
 354   11:20   34.8    93    1.1   237      5.0   832.7   33.56      98    33.6   999.0
 354   11:30   34.8    92    2.0   255      5.7   832.5   33.53      76    33.6   999.0
 354   11:40   34.7    92    1.8   221      6.5   832.5   33.53     114    33.6   999.0
 354   11:50   34.9    92    2.2   233      6.5   832.2   33.53      97    33.6   999.0
 354   12:00   34.8    92    1.8   248      5.4   832.2   33.56      65    33.6   999.0
 354   12:10   34.4    92    2.2   223      6.3   832.4   33.56      69    33.6   999.0
 354   12:20   34.3    93    2.4   228      6.8   832.5   33.53      74    33.6   999.0
 354   12:30   34.6    93    1.3   222      5.6   832.5   33.56      99    33.6   999.0
 354   12:40   34.7    93    1.5   211      3.9   832.2   33.56      96    33.6   999.0
 354   12:50   34.6    93    2.0   225      5.9   831.9   33.56      85    33.6   999.0
 354   13:00   34.6    93    2.3   226      7.7   832.4   33.56      79    33.5   999.0
 354   13:10   34.4    94    2.6   245      9.1   832.6   33.56      73    33.5   999.0
 354   13:20   34.5    94    2.0   254     10.3   832.7   33.56      82    33.6   999.0
 354   13:30   34.6    93    1.6   251      5.4   832.7   33.59      89    33.6   999.0
 354   13:40   34.6    93    2.0   223      5.0   832.5   33.56      86    33.6   999.0
 354   13:50   34.8    93    2.0   237      5.6   832.6   33.56      93    33.5   999.0
 354   14:00   34.8    93    2.2   241      5.3   832.7   33.59     115    33.5   999.0
 354   14:10   34.8    93    2.2   237      7.6   832.7   33.59      94    33.5   999.0
 354   14:20   34.6    93    3.1   234      6.9   832.6   33.59      67    33.6   999.0
 354   14:30   34.5    94    2.1   219      7.4   832.5   33.59      70    33.5   999.0
 354   14:40   34.8    94    1.4   212      7.7   832.6   33.59      62    33.5   999.0
 354   14:50   34.3    94    2.3   195      8.7   832.7   33.59      27    33.5   999.0
 354   15:00   34.1    94    1.9   228      5.4   832.9   33.59      17    33.5   999.0
 354   15:10   34.1    95    1.0   223      4.7   833.0   33.59      50    33.5   999.0
 354   15:20   34.3    95    1.0   224      3.7   833.0   33.59      37    33.5   999.0
 354   15:30   34.2    95    1.8   187      5.0   833.1   33.59      32    33.5   999.0
 354   15:40   34.1    95    1.2   172      2.7   833.0   33.59      20    33.5   999.0
 354   15:50   34.0    95    1.0   180      3.9   833.0   33.62       9    33.5   999.0
 354   16:00   33.9    95    1.0   159      3.4   833.1   33.59      10    33.5   999.0
 354   16:10   33.9    95    1.1   194      3.1   833.3   33.59      11    33.5   999.0
 354   16:20   33.8    95    1.0   162      2.6   833.4   33.59       7    33.5   999.0
 354   16:30   33.7    95    0.7   179      2.3   833.4   33.62       4    33.5   999.0
 354   16:40   33.6    96    1.4   148      2.3   833.5   33.59       2    33.5   999.0
 354   16:50   33.6    96    1.6   151      4.2   833.6   33.59       1    33.5   999.0
 354   17:00   33.5    96    0.6   150      2.0   833.6   33.62       0    33.5   999.0
 354   17:10   33.5    96    1.1   143      2.7   833.7   33.62       0    33.5   999.0
 354   17:20   33.4    96    0.8   122      2.1   833.8   33.62       0    33.5   999.0
 354   17:30   33.3    96    1.2   134      2.6   833.8   33.62       0    33.5   999.0
 354   17:40   33.1    96    0.3   144      1.2   833.8   33.62       0    33.5   999.0
 354   17:50   33.0    96    0.6   142      2.0   833.8   33.62       0    33.5   999.0
 354   18:00   32.9    96    0.2   141      1.8   833.8   33.62       0    33.5   999.0
 354   18:10   32.7    96    0.0     0      0.0   833.8   33.62       0    33.5   999.0
 354   18:20   32.6    96    0.0     0      0.0   833.8   33.66       0    33.5   999.0
 354   18:30   32.6    96    0.0     0      0.0   833.8   33.62       0    33.5   999.0
 354   18:40   32.6    96    0.1   140      1.2   833.8   33.62       0    33.5   999.0
 354   18:50   32.6    96    0.0     0      0.0   833.9   33.62       0    33.5   999.0
 354   19:00   32.6    96    0.0   140      0.8   834.0   33.66       0    33.5   999.0
 354   19:10   32.5    96    0.0     0      0.0   834.0   33.66       0    33.5   999.0
 354   19:20   32.5    96    0.0     0      0.0   834.1   33.66       0    33.5   999.0
 354   19:30   32.5    96    0.0     0      0.0   834.3   33.66       0    33.5   999.0
 354   19:40   32.6    96    0.0   134      0.7   834.3   33.66       0    33.4   999.0
 354   19:50   32.6    96    0.0     0      0.0   834.3   33.66       0    33.4   999.0
 354   20:00   32.6    96    0.0     0      0.0   834.5   33.69       0    33.5   999.0
 354   20:10   32.6    96    0.0     0      0.0   834.6   33.69       0    33.5   999.0
 354   20:20   32.5    96    0.0     0      0.0   834.5   33.69       0    33.5   999.0
 354   20:30   32.5    96    0.0     0      0.0   834.7   33.69       0    33.4   999.0
 354   20:40   32.6    96    0.0     0      0.0   834.8   33.69       0    33.4   999.0
 354   20:50   32.6    96    0.0     0      0.0   834.9   33.72       0    33.4   999.0
 354   21:00   32.6    96    0.0     0      0.0   834.9   33.69       0    33.4   999.0
 354   21:10   32.6    96    0.0     0      0.0   834.9   33.69       0    33.4   999.0
 354   21:20   32.5    96    0.2   123      1.6   835.1   33.69       0    33.4   999.0
 354   21:30   32.7    97    0.3    71      1.8   835.3   33.69       0    33.4   999.0
 354   21:40   32.7    97    0.5    48      2.4   835.4   33.72       0    33.4   999.0
 354   21:50   32.7    97    0.9    45      2.2   835.5   33.72       0    33.4   999.0
 354   22:00   32.6    97    1.0    41      2.4   835.5   33.72       0    33.4   999.0
 354   22:10   32.6    97    1.2    39      2.6   835.4   33.72       0    33.4   999.0
 354   22:20   32.6    97    1.1    39      2.9   835.2   33.72       0    33.4   999.0
 354   22:30   32.6    97    1.0    46      3.6   835.3   33.72       0    33.4   999.0
 354   22:40   32.6    97    0.9    48      2.7   835.4   33.72       0    33.4   999.0
 354   22:50   32.7    97    1.2    48      3.4   835.4   33.75       0    33.4   999.0
 354   23:00   32.7    97    1.2    42      2.6   835.4   33.72       0    33.4   999.0
 354   23:10   32.6    97    0.8    53      3.2   835.4   33.75       0    33.4   999.0
 354   23:20   32.6    97    0.6    62      2.4   835.5   33.75       0    33.4   999.0
 354   23:30   32.6    97    0.9    42      3.1   835.4   33.75       0    33.4   999.0

Return to Onion Creek graphs page.


Western Regional Climate Center,wrcc@dri.edu